Terminal Aerodrome Forecast
Issued by NWS

Home | Current Version | Previous Version | Graphics & Text | Print | Product List | Glossary On
Versions: 1 2 3 4 5 6 7 8 9 10 11 12 13
000
FTUS43 KTOP 300500
TAFFOE
TAF
KFOE 300520Z 3006/3106 17007KT P6SM BKN150 WS008/22040KT
     FM301200 24008KT P6SM SCT150
     FM301700 33015G22KT P6SM SKC
     FM302300 34011KT P6SM SKC=

USA.gov is the U.S. government's official web portal to all federal, state and local government web resources and services.